sensor_id;sensor_type;location;lat;lon;timestamp;P1;durP1;ratioP1;P2;durP2;ratioP2
76612;SDS011;65507;48.454;-2.058;2022-12-01T00:02:14;17.38;;;8.50;;
76612;SDS011;65507;48.454;-2.058;2022-12-01T00:04:40;19.40;;;8.23;;
76612;SDS011;65507;48.454;-2.058;2022-12-01T00:07:06;18.27;;;8.73;;
76612;SDS011;65507;48.454;-2.058;2022-12-01T00:09:31;20.48;;;9.48;;
76612;SDS011;65507;48.454;-2.058;2022-12-01T00:12:16;19.08;;;9.23;;
76612;SDS011;65507;48.454;-2.058;2022-12-01T00:14:41;20.75;;;8.55;;
76612;SDS011;65507;48.454;-2.058;2022-12-01T00:17:07;20.25;;;8.85;;
76612;SDS011;65507;48.454;-2.058;2022-12-01T00:19:33;18.77;;;9.15;;
76612;SDS011;65507;48.454;-2.058;2022-12-01T00:21:58;18.23;;;8.63;;
76612;SDS011;65507;48.454;-2.058;2022-12-01T00:24:24;22.00;;;9.15;;
76612;SDS011;65507;48.454;-2.058;2022-12-01T00:26:50;25.48;;;8.95;;
76612;SDS011;65507;48.454;-2.058;2022-12-01T00:29:16;19.33;;;8.48;;
76612;SDS011;65507;48.454;-2.058;2022-12-01T00:31:41;18.05;;;8.45;;
76612;SDS011;65507;48.454;-2.058;2022-12-01T00:34:11;17.83;;;8.55;;
76612;SDS011;65507;48.454;-2.058;2022-12-01T00:36:46;18.73;;;8.60;;
76612;SDS011;65507;48.454;-2.058;2022-12-01T00:39:12;17.60;;;7.93;;
76612;SDS011;65507;48.454;-2.058;2022-12-01T00:41:38;20.17;;;8.98;;
76612;SDS011;65507;48.454;-2.058;2022-12-01T00:44:03;17.40;;;7.78;;
76612;SDS011;65507;48.454;-2.058;2022-12-01T00:46:29;15.70;;;8.10;;
76612;SDS011;65507;48.454;-2.058;2022-12-01T00:48:55;17.73;;;7.82;;
76612;SDS011;65507;48.454;-2.058;2022-12-01T00:51:21;16.42;;;8.90;;
76612;SDS011;65507;48.454;-2.058;2022-12-01T00:53:47;17.90;;;8.13;;
76612;SDS011;65507;48.454;-2.058;2022-12-01T00:56:12;17.02;;;8.20;;
76612;SDS011;65507;48.454;-2.058;2022-12-01T00:58:39;16.80;;;8.45;;
76612;SDS011;65507;48.454;-2.058;2022-12-01T01:01:04;17.67;;;8.18;;
76612;SDS011;65507;48.454;-2.058;2022-12-01T01:03:31;14.88;;;7.80;;
76612;SDS011;65507;48.454;-2.058;2022-12-01T01:06:08;19.27;;;8.27;;
76612;SDS011;65507;48.454;-2.058;2022-12-01T01:08:35;18.98;;;7.93;;
76612;SDS011;65507;48.454;-2.058;2022-12-01T01:11:02;18.23;;;8.77;;
76612;SDS011;65507;48.454;-2.058;2022-12-01T01:13:28;17.58;;;7.72;;
76612;SDS011;65507;48.454;-2.058;2022-12-01T01:16:02;18.85;;;8.90;;
76612;SDS011;65507;48.454;-2.058;2022-12-01T01:18:38;17.95;;;7.72;;
76612;SDS011;65507;48.454;-2.058;2022-12-01T01:21:05;20.13;;;8.30;;
76612;SDS011;65507;48.454;-2.058;2022-12-01T01:23:32;19.80;;;7.60;;
76612;SDS011;65507;48.454;-2.058;2022-12-01T01:26:06;16.00;;;8.05;;
76612;SDS011;65507;48.454;-2.058;2022-12-01T01:28:37;17.23;;;7.88;;
76612;SDS011;65507;48.454;-2.058;2022-12-01T01:31:06;20.02;;;8.60;;
76612;SDS011;65507;48.454;-2.058;2022-12-01T01:33:33;17.98;;;7.65;;
76612;SDS011;65507;48.454;-2.058;2022-12-01T01:36:00;20.30;;;9.05;;
76612;SDS011;65507;48.454;-2.058;2022-12-01T01:38:26;16.47;;;7.37;;
76612;SDS011;65507;48.454;-2.058;2022-12-01T01:40:53;13.45;;;6.53;;
76612;SDS011;65507;48.454;-2.058;2022-12-01T01:46:06;15.98;;;8.35;;
76612;SDS011;65507;48.454;-2.058;2022-12-01T01:48:34;15.90;;;8.05;;
76612;SDS011;65507;48.454;-2.058;2022-12-01T01:51:02;16.70;;;7.78;;
76612;SDS011;65507;48.454;-2.058;2022-12-01T01:53:28;17.05;;;7.60;;
76612;SDS011;65507;48.454;-2.058;2022-12-01T01:55:55;15.60;;;8.18;;
76612;SDS011;65507;48.454;-2.058;2022-12-01T01:58:22;13.15;;;7.13;;
76612;SDS011;65507;48.454;-2.058;2022-12-01T02:00:48;15.63;;;8.10;;
76612;SDS011;65507;48.454;-2.058;2022-12-01T02:03:14;14.85;;;7.90;;
76612;SDS011;65507;48.454;-2.058;2022-12-01T02:05:41;14.70;;;7.32;;
76612;SDS011;65507;48.454;-2.058;2022-12-01T02:08:09;15.55;;;7.75;;
76612;SDS011;65507;48.454;-2.058;2022-12-01T02:35:11;16.67;;;7.68;;
76612;SDS011;65507;48.454;-2.058;2022-12-01T02:40:45;16.92;;;7.28;;
76612;SDS011;65507;48.454;-2.058;2022-12-01T02:46:12;14.52;;;7.82;;
76612;SDS011;65507;48.454;-2.058;2022-12-01T02:48:47;15.65;;;7.65;;
76612;SDS011;65507;48.454;-2.058;2022-12-01T02:51:18;16.50;;;7.35;;
76612;SDS011;65507;48.454;-2.058;2022-12-01T02:53:58;15.75;;;8.00;;
76612;SDS011;65507;48.454;-2.058;2022-12-01T02:56:26;15.90;;;7.75;;
76612;SDS011;65507;48.454;-2.058;2022-12-01T02:58:51;13.45;;;7.05;;
76612;SDS011;65507;48.454;-2.058;2022-12-01T03:01:22;17.30;;;8.10;;
76612;SDS011;65507;48.454;-2.058;2022-12-01T03:06:43;18.10;;;7.45;;
76612;SDS011;65507;48.454;-2.058;2022-12-01T03:12:19;15.07;;;7.05;;
76612;SDS011;65507;48.454;-2.058;2022-12-01T03:17:56;14.30;;;7.10;;
76612;SDS011;65507;48.454;-2.058;2022-12-01T03:20:24;16.15;;;7.95;;
76612;SDS011;65507;48.454;-2.058;2022-12-01T03:23:09;14.82;;;7.55;;
76612;SDS011;65507;48.454;-2.058;2022-12-01T03:25:40;17.48;;;7.30;;
76612;SDS011;65507;48.454;-2.058;2022-12-01T03:28:10;15.93;;;7.57;;
76612;SDS011;65507;48.454;-2.058;2022-12-01T03:30:38;15.65;;;7.72;;
76612;SDS011;65507;48.454;-2.058;2022-12-01T03:33:09;22.73;;;8.68;;
76612;SDS011;65507;48.454;-2.058;2022-12-01T03:35:49;17.30;;;8.57;;
76612;SDS011;65507;48.454;-2.058;2022-12-01T03:38:39;15.95;;;7.55;;
76612;SDS011;65507;48.454;-2.058;2022-12-01T03:41:15;17.05;;;7.53;;
76612;SDS011;65507;48.454;-2.058;2022-12-01T03:43:47;13.43;;;7.15;;
76612;SDS011;65507;48.454;-2.058;2022-12-01T03:49:10;14.52;;;6.68;;
76612;SDS011;65507;48.454;-2.058;2022-12-01T03:57:17;15.63;;;7.85;;
76612;SDS011;65507;48.454;-2.058;2022-12-01T03:59:49;18.83;;;8.18;;
76612;SDS011;65507;48.454;-2.058;2022-12-01T04:02:16;17.42;;;8.07;;
76612;SDS011;65507;48.454;-2.058;2022-12-01T04:04:42;16.25;;;7.85;;
76612;SDS011;65507;48.454;-2.058;2022-12-01T04:07:08;14.25;;;7.40;;
76612;SDS011;65507;48.454;-2.058;2022-12-01T04:09:38;18.58;;;8.05;;
76612;SDS011;65507;48.454;-2.058;2022-12-01T04:12:05;19.63;;;8.43;;
76612;SDS011;65507;48.454;-2.058;2022-12-01T04:14:50;17.95;;;8.60;;
76612;SDS011;65507;48.454;-2.058;2022-12-01T04:17:18;17.73;;;8.73;;
76612;SDS011;65507;48.454;-2.058;2022-12-01T04:19:44;17.50;;;7.60;;
76612;SDS011;65507;48.454;-2.058;2022-12-01T04:22:10;15.93;;;7.82;;
76612;SDS011;65507;48.454;-2.058;2022-12-01T04:24:35;17.85;;;7.88;;
76612;SDS011;65507;48.454;-2.058;2022-12-01T04:27:01;19.30;;;8.15;;
76612;SDS011;65507;48.454;-2.058;2022-12-01T04:29:27;17.75;;;7.70;;
76612;SDS011;65507;48.454;-2.058;2022-12-01T04:31:52;16.55;;;8.10;;
76612;SDS011;65507;48.454;-2.058;2022-12-01T04:34:18;17.17;;;7.97;;
76612;SDS011;65507;48.454;-2.058;2022-12-01T04:36:44;20.40;;;8.40;;
76612;SDS011;65507;48.454;-2.058;2022-12-01T04:39:10;17.35;;;8.00;;
76612;SDS011;65507;48.454;-2.058;2022-12-01T04:41:35;20.33;;;8.07;;
76612;SDS011;65507;48.454;-2.058;2022-12-01T04:44:01;18.80;;;8.07;;
76612;SDS011;65507;48.454;-2.058;2022-12-01T04:46:27;17.65;;;8.90;;
76612;SDS011;65507;48.454;-2.058;2022-12-01T04:48:52;21.75;;;7.78;;
76612;SDS011;65507;48.454;-2.058;2022-12-01T04:51:18;14.95;;;7.45;;
76612;SDS011;65507;48.454;-2.058;2022-12-01T04:53:46;18.05;;;8.27;;
76612;SDS011;65507;48.454;-2.058;2022-12-01T04:56:12;17.77;;;7.68;;
76612;SDS011;65507;48.454;-2.058;2022-12-01T04:58:38;14.93;;;7.32;;
76612;SDS011;65507;48.454;-2.058;2022-12-01T05:01:05;14.80;;;7.03;;
76612;SDS011;65507;48.454;-2.058;2022-12-01T05:03:36;17.45;;;7.53;;
76612;SDS011;65507;48.454;-2.058;2022-12-01T05:06:03;15.32;;;7.03;;
76612;SDS011;65507;48.454;-2.058;2022-12-01T05:08:31;19.05;;;7.65;;
76612;SDS011;65507;48.454;-2.058;2022-12-01T05:10:58;19.17;;;7.83;;
76612;SDS011;65507;48.454;-2.058;2022-12-01T05:13:24;16.73;;;8.00;;
76612;SDS011;65507;48.454;-2.058;2022-12-01T05:15:50;16.70;;;7.93;;
76612;SDS011;65507;48.454;-2.058;2022-12-01T05:18:16;17.98;;;7.97;;
76612;SDS011;65507;48.454;-2.058;2022-12-01T05:20:41;19.98;;;8.38;;
76612;SDS011;65507;48.454;-2.058;2022-12-01T05:23:23;18.85;;;8.25;;
76612;SDS011;65507;48.454;-2.058;2022-12-01T05:25:53;17.35;;;7.82;;
76612;SDS011;65507;48.454;-2.058;2022-12-01T05:28:20;15.73;;;7.77;;
76612;SDS011;65507;48.454;-2.058;2022-12-01T05:30:47;20.13;;;8.15;;
76612;SDS011;65507;48.454;-2.058;2022-12-01T05:33:13;21.65;;;8.63;;
76612;SDS011;65507;48.454;-2.058;2022-12-01T05:35:39;17.90;;;7.78;;
76612;SDS011;65507;48.454;-2.058;2022-12-01T05:38:05;17.13;;;7.63;;
76612;SDS011;65507;48.454;-2.058;2022-12-01T05:40:31;23.95;;;8.90;;
76612;SDS011;65507;48.454;-2.058;2022-12-01T05:42:57;18.08;;;8.18;;
76612;SDS011;65507;48.454;-2.058;2022-12-01T05:45:23;18.52;;;8.02;;
76612;SDS011;65507;48.454;-2.058;2022-12-01T05:47:53;18.17;;;7.90;;
76612;SDS011;65507;48.454;-2.058;2022-12-01T05:50:20;17.40;;;7.70;;
76612;SDS011;65507;48.454;-2.058;2022-12-01T05:52:46;20.73;;;8.60;;
76612;SDS011;65507;48.454;-2.058;2022-12-01T05:55:12;18.77;;;8.43;;
76612;SDS011;65507;48.454;-2.058;2022-12-01T05:57:37;19.45;;;7.47;;
76612;SDS011;65507;48.454;-2.058;2022-12-01T06:00:04;18.85;;;9.18;;
76612;SDS011;65507;48.454;-2.058;2022-12-01T06:02:30;17.98;;;8.13;;
76612;SDS011;65507;48.454;-2.058;2022-12-01T06:04:56;22.50;;;9.07;;
76612;SDS011;65507;48.454;-2.058;2022-12-01T06:07:22;22.45;;;8.38;;
76612;SDS011;65507;48.454;-2.058;2022-12-01T06:09:49;16.73;;;7.45;;
76612;SDS011;65507;48.454;-2.058;2022-12-01T06:12:16;20.08;;;8.45;;
76612;SDS011;65507;48.454;-2.058;2022-12-01T06:14:43;20.00;;;8.55;;
76612;SDS011;65507;48.454;-2.058;2022-12-01T06:17:09;18.42;;;8.60;;
76612;SDS011;65507;48.454;-2.058;2022-12-01T06:19:34;20.50;;;9.55;;
76612;SDS011;65507;48.454;-2.058;2022-12-01T06:22:00;19.65;;;8.48;;
76612;SDS011;65507;48.454;-2.058;2022-12-01T06:24:26;20.95;;;8.90;;
76612;SDS011;65507;48.454;-2.058;2022-12-01T06:26:52;21.23;;;8.80;;
76612;SDS011;65507;48.454;-2.058;2022-12-01T06:29:17;20.25;;;9.45;;
76612;SDS011;65507;48.454;-2.058;2022-12-01T06:31:43;23.20;;;8.90;;
76612;SDS011;65507;48.454;-2.058;2022-12-01T06:34:09;19.08;;;8.95;;
76612;SDS011;65507;48.454;-2.058;2022-12-01T06:36:35;22.30;;;8.25;;
76612;SDS011;65507;48.454;-2.058;2022-12-01T06:39:01;21.30;;;8.10;;
76612;SDS011;65507;48.454;-2.058;2022-12-01T06:41:33;20.33;;;7.80;;
76612;SDS011;65507;48.454;-2.058;2022-12-01T06:43:59;24.15;;;10.13;;
76612;SDS011;65507;48.454;-2.058;2022-12-01T06:46:25;24.58;;;10.18;;
76612;SDS011;65507;48.454;-2.058;2022-12-01T06:48:51;20.27;;;9.02;;
76612;SDS011;65507;48.454;-2.058;2022-12-01T06:51:20;23.63;;;10.00;;
76612;SDS011;65507;48.454;-2.058;2022-12-01T06:53:46;25.45;;;9.02;;
76612;SDS011;65507;48.454;-2.058;2022-12-01T06:56:12;19.50;;;9.13;;
76612;SDS011;65507;48.454;-2.058;2022-12-01T06:58:37;20.25;;;9.05;;
76612;SDS011;65507;48.454;-2.058;2022-12-01T07:01:09;23.50;;;9.98;;
76612;SDS011;65507;48.454;-2.058;2022-12-01T07:03:36;21.67;;;9.02;;
76612;SDS011;65507;48.454;-2.058;2022-12-01T07:06:02;20.55;;;9.20;;
76612;SDS011;65507;48.454;-2.058;2022-12-01T07:08:29;20.83;;;9.00;;
76612;SDS011;65507;48.454;-2.058;2022-12-01T07:10:59;21.67;;;8.75;;
76612;SDS011;65507;48.454;-2.058;2022-12-01T07:13:26;20.45;;;8.52;;
76612;SDS011;65507;48.454;-2.058;2022-12-01T07:15:52;21.88;;;8.65;;
76612;SDS011;65507;48.454;-2.058;2022-12-01T07:18:18;19.05;;;9.00;;
76612;SDS011;65507;48.454;-2.058;2022-12-01T07:20:44;20.98;;;9.35;;
76612;SDS011;65507;48.454;-2.058;2022-12-01T07:23:09;21.48;;;8.82;;
76612;SDS011;65507;48.454;-2.058;2022-12-01T07:25:35;22.33;;;9.05;;
76612;SDS011;65507;48.454;-2.058;2022-12-01T07:28:01;24.65;;;9.68;;
76612;SDS011;65507;48.454;-2.058;2022-12-01T07:30:27;23.60;;;9.77;;
76612;SDS011;65507;48.454;-2.058;2022-12-01T07:32:52;26.23;;;10.45;;
76612;SDS011;65507;48.454;-2.058;2022-12-01T07:35:18;21.35;;;8.88;;
76612;SDS011;65507;48.454;-2.058;2022-12-01T07:37:44;25.15;;;10.23;;
76612;SDS011;65507;48.454;-2.058;2022-12-01T07:40:10;28.52;;;10.45;;
76612;SDS011;65507;48.454;-2.058;2022-12-01T07:42:39;26.02;;;10.27;;
76612;SDS011;65507;48.454;-2.058;2022-12-01T07:45:05;25.95;;;10.95;;
76612;SDS011;65507;48.454;-2.058;2022-12-01T07:47:31;26.13;;;10.52;;
76612;SDS011;65507;48.454;-2.058;2022-12-01T07:49:57;26.58;;;10.77;;
76612;SDS011;65507;48.454;-2.058;2022-12-01T07:52:23;31.83;;;11.60;;
76612;SDS011;65507;48.454;-2.058;2022-12-01T07:54:49;24.20;;;9.68;;
76612;SDS011;65507;48.454;-2.058;2022-12-01T07:57:14;27.15;;;10.25;;
76612;SDS011;65507;48.454;-2.058;2022-12-01T07:59:42;23.73;;;9.82;;
76612;SDS011;65507;48.454;-2.058;2022-12-01T08:02:08;24.55;;;9.55;;
76612;SDS011;65507;48.454;-2.058;2022-12-01T08:04:34;22.77;;;9.55;;
76612;SDS011;65507;48.454;-2.058;2022-12-01T08:07:00;23.52;;;10.02;;
76612;SDS011;65507;48.454;-2.058;2022-12-01T08:09:26;27.10;;;9.55;;
76612;SDS011;65507;48.454;-2.058;2022-12-01T08:11:52;26.88;;;9.30;;
76612;SDS011;65507;48.454;-2.058;2022-12-01T08:14:18;22.00;;;9.63;;
76612;SDS011;65507;48.454;-2.058;2022-12-01T08:16:44;27.13;;;10.45;;
76612;SDS011;65507;48.454;-2.058;2022-12-01T08:19:10;21.85;;;9.07;;
76612;SDS011;65507;48.454;-2.058;2022-12-01T08:21:36;24.40;;;10.05;;
76612;SDS011;65507;48.454;-2.058;2022-12-01T08:24:02;29.35;;;10.82;;
76612;SDS011;65507;48.454;-2.058;2022-12-01T08:26:28;30.48;;;11.25;;
76612;SDS011;65507;48.454;-2.058;2022-12-01T08:28:54;23.35;;;9.75;;
76612;SDS011;65507;48.454;-2.058;2022-12-01T08:31:23;29.85;;;10.43;;
76612;SDS011;65507;48.454;-2.058;2022-12-01T08:33:50;29.88;;;12.35;;
76612;SDS011;65507;48.454;-2.058;2022-12-01T08:36:16;28.17;;;12.57;;
76612;SDS011;65507;48.454;-2.058;2022-12-01T08:38:44;26.98;;;13.13;;
76612;SDS011;65507;48.454;-2.058;2022-12-01T08:41:11;23.65;;;11.73;;
76612;SDS011;65507;48.454;-2.058;2022-12-01T08:43:37;25.17;;;11.88;;
76612;SDS011;65507;48.454;-2.058;2022-12-01T08:46:09;24.42;;;12.00;;
76612;SDS011;65507;48.454;-2.058;2022-12-01T08:48:36;30.90;;;11.45;;
76612;SDS011;65507;48.454;-2.058;2022-12-01T08:51:06;22.08;;;9.98;;
76612;SDS011;65507;48.454;-2.058;2022-12-01T08:53:35;27.27;;;10.95;;
76612;SDS011;65507;48.454;-2.058;2022-12-01T08:58:30;29.67;;;10.27;;
76612;SDS011;65507;48.454;-2.058;2022-12-01T09:01:09;23.17;;;9.63;;
76612;SDS011;65507;48.454;-2.058;2022-12-01T09:03:36;27.73;;;10.43;;
76612;SDS011;65507;48.454;-2.058;2022-12-01T09:06:08;23.05;;;9.20;;
76612;SDS011;65507;48.454;-2.058;2022-12-01T09:08:36;19.02;;;8.15;;
76612;SDS011;65507;48.454;-2.058;2022-12-01T09:11:06;21.77;;;8.98;;
76612;SDS011;65507;48.454;-2.058;2022-12-01T09:13:35;21.67;;;8.55;;
76612;SDS011;65507;48.454;-2.058;2022-12-01T09:16:06;27.90;;;9.75;;
76612;SDS011;65507;48.454;-2.058;2022-12-01T09:18:34;22.58;;;8.43;;
76612;SDS011;65507;48.454;-2.058;2022-12-01T09:21:08;23.65;;;8.23;;
76612;SDS011;65507;48.454;-2.058;2022-12-01T09:23:45;19.60;;;8.27;;
76612;SDS011;65507;48.454;-2.058;2022-12-01T09:26:11;20.75;;;7.90;;
76612;SDS011;65507;48.454;-2.058;2022-12-01T09:28:42;19.13;;;8.10;;
76612;SDS011;65507;48.454;-2.058;2022-12-01T09:31:09;17.88;;;8.52;;
76612;SDS011;65507;48.454;-2.058;2022-12-01T09:36:02;19.15;;;8.65;;
76612;SDS011;65507;48.454;-2.058;2022-12-01T09:38:29;18.23;;;7.72;;
76612;SDS011;65507;48.454;-2.058;2022-12-01T09:41:01;19.95;;;8.18;;
76612;SDS011;65507;48.454;-2.058;2022-12-01T09:43:40;18.80;;;8.48;;
76612;SDS011;65507;48.454;-2.058;2022-12-01T09:46:14;19.17;;;8.20;;
76612;SDS011;65507;48.454;-2.058;2022-12-01T09:48:45;21.52;;;8.82;;
76612;SDS011;65507;48.454;-2.058;2022-12-01T09:51:17;19.83;;;7.93;;
76612;SDS011;65507;48.454;-2.058;2022-12-01T09:53:51;16.73;;;8.40;;
76612;SDS011;65507;48.454;-2.058;2022-12-01T09:56:26;17.77;;;8.00;;
76612;SDS011;65507;48.454;-2.058;2022-12-01T09:59:04;18.95;;;8.02;;
76612;SDS011;65507;48.454;-2.058;2022-12-01T10:01:36;19.90;;;7.85;;
76612;SDS011;65507;48.454;-2.058;2022-12-01T10:06:51;16.27;;;7.82;;
76612;SDS011;65507;48.454;-2.058;2022-12-01T10:10:11;16.05;;;7.75;;
76612;SDS011;65507;48.454;-2.058;2022-12-01T10:12:17;16.13;;;7.72;;
76612;SDS011;65507;48.454;-2.058;2022-12-01T10:14:44;20.02;;;8.00;;
76612;SDS011;65507;48.454;-2.058;2022-12-01T10:17:30;19.08;;;7.55;;
76612;SDS011;65507;48.454;-2.058;2022-12-01T10:22:57;16.25;;;6.47;;
76612;SDS011;65507;48.454;-2.058;2022-12-01T10:33:56;17.52;;;8.35;;
76612;SDS011;65507;48.454;-2.058;2022-12-01T10:36:29;15.60;;;7.30;;
76612;SDS011;65507;48.454;-2.058;2022-12-01T10:38:56;17.55;;;8.48;;
76612;SDS011;65507;48.454;-2.058;2022-12-01T10:41:22;19.55;;;8.95;;
76612;SDS011;65507;48.454;-2.058;2022-12-01T10:43:53;21.83;;;8.38;;
76612;SDS011;65507;48.454;-2.058;2022-12-01T10:46:28;18.05;;;8.85;;
76612;SDS011;65507;48.454;-2.058;2022-12-01T10:49:13;19.95;;;8.95;;
76612;SDS011;65507;48.454;-2.058;2022-12-01T10:54:19;15.15;;;7.95;;
76612;SDS011;65507;48.454;-2.058;2022-12-01T10:56:47;21.30;;;8.95;;
76612;SDS011;65507;48.454;-2.058;2022-12-01T10:59:47;18.48;;;9.57;;
76612;SDS011;65507;48.454;-2.058;2022-12-01T11:02:02;18.10;;;8.02;;
76612;SDS011;65507;48.454;-2.058;2022-12-01T11:04:39;22.33;;;8.45;;
76612;SDS011;65507;48.454;-2.058;2022-12-01T11:07:15;17.65;;;8.63;;
76612;SDS011;65507;48.454;-2.058;2022-12-01T11:09:53;19.20;;;8.68;;
76612;SDS011;65507;48.454;-2.058;2022-12-01T11:12:41;25.60;;;8.85;;
76612;SDS011;65507;48.454;-2.058;2022-12-01T11:15:17;16.77;;;7.75;;
76612;SDS011;65507;48.454;-2.058;2022-12-01T11:18:04;18.58;;;8.35;;
76612;SDS011;65507;48.454;-2.058;2022-12-01T11:20:44;18.30;;;8.17;;
76612;SDS011;65507;48.454;-2.058;2022-12-01T11:28:57;20.52;;;9.75;;
76612;SDS011;65507;48.454;-2.058;2022-12-01T11:31:36;25.23;;;10.00;;
76612;SDS011;65507;48.454;-2.058;2022-12-01T11:34:29;27.45;;;11.85;;
76612;SDS011;65507;48.454;-2.058;2022-12-01T11:37:02;21.50;;;10.40;;
76612;SDS011;65507;48.454;-2.058;2022-12-01T11:39:32;22.60;;;9.38;;
76612;SDS011;65507;48.454;-2.058;2022-12-01T11:44:38;19.73;;;9.85;;
76612;SDS011;65507;48.454;-2.058;2022-12-01T11:47:14;22.60;;;9.45;;
76612;SDS011;65507;48.454;-2.058;2022-12-01T11:49:43;16.98;;;9.00;;
76612;SDS011;65507;48.454;-2.058;2022-12-01T11:52:45;22.58;;;9.23;;
76612;SDS011;65507;48.454;-2.058;2022-12-01T11:57:39;20.17;;;9.38;;
76612;SDS011;65507;48.454;-2.058;2022-12-01T12:00:11;22.55;;;9.05;;
76612;SDS011;65507;48.454;-2.058;2022-12-01T12:02:40;25.48;;;9.70;;
76612;SDS011;65507;48.454;-2.058;2022-12-01T12:10:44;21.55;;;9.55;;
76612;SDS011;65507;48.454;-2.058;2022-12-01T12:13:17;19.08;;;8.80;;
76612;SDS011;65507;48.454;-2.058;2022-12-01T12:24:07;18.50;;;7.93;;
76612;SDS011;65507;48.454;-2.058;2022-12-01T12:29:21;23.75;;;8.98;;
76612;SDS011;65507;48.454;-2.058;2022-12-01T12:35:53;13.93;;;6.68;;
76612;SDS011;65507;48.454;-2.058;2022-12-01T12:43:47;17.50;;;7.20;;
76612;SDS011;65507;48.454;-2.058;2022-12-01T12:49:16;12.43;;;6.00;;
76612;SDS011;65507;48.454;-2.058;2022-12-01T12:51:59;12.88;;;5.70;;
76612;SDS011;65507;48.454;-2.058;2022-12-01T12:54:38;14.00;;;6.07;;
76612;SDS011;65507;48.454;-2.058;2022-12-01T13:00:01;13.73;;;6.10;;
76612;SDS011;65507;48.454;-2.058;2022-12-01T13:08:23;13.30;;;6.43;;
76612;SDS011;65507;48.454;-2.058;2022-12-01T13:14:14;13.07;;;5.43;;
76612;SDS011;65507;48.454;-2.058;2022-12-01T13:16:21;11.45;;;5.63;;
76612;SDS011;65507;48.454;-2.058;2022-12-01T13:18:57;11.43;;;4.63;;
76612;SDS011;65507;48.454;-2.058;2022-12-01T13:21:35;9.10;;;4.40;;
76612;SDS011;65507;48.454;-2.058;2022-12-01T13:24:05;9.80;;;4.25;;
76612;SDS011;65507;48.454;-2.058;2022-12-01T13:26:33;11.57;;;4.63;;
76612;SDS011;65507;48.454;-2.058;2022-12-01T13:29:02;9.90;;;4.72;;
76612;SDS011;65507;48.454;-2.058;2022-12-01T13:31:31;10.45;;;4.80;;
76612;SDS011;65507;48.454;-2.058;2022-12-01T13:34:14;10.70;;;4.70;;
76612;SDS011;65507;48.454;-2.058;2022-12-01T13:36:47;11.15;;;5.20;;
76612;SDS011;65507;48.454;-2.058;2022-12-01T13:39:18;12.68;;;4.53;;
76612;SDS011;65507;48.454;-2.058;2022-12-01T13:41:59;9.18;;;4.72;;
76612;SDS011;65507;48.454;-2.058;2022-12-01T13:44:50;10.75;;;4.22;;
76612;SDS011;65507;48.454;-2.058;2022-12-01T13:53:12;10.93;;;4.90;;
76612;SDS011;65507;48.454;-2.058;2022-12-01T13:58:48;9.25;;;3.55;;
76612;SDS011;65507;48.454;-2.058;2022-12-01T14:04:17;8.93;;;4.38;;
76612;SDS011;65507;48.454;-2.058;2022-12-01T14:07:11;9.77;;;3.78;;
76612;SDS011;65507;48.454;-2.058;2022-12-01T14:09:43;10.30;;;4.18;;
76612;SDS011;65507;48.454;-2.058;2022-12-01T14:12:14;10.82;;;4.40;;
76612;SDS011;65507;48.454;-2.058;2022-12-01T14:14:50;7.97;;;3.72;;
76612;SDS011;65507;48.454;-2.058;2022-12-01T14:20:05;9.20;;;4.90;;
76612;SDS011;65507;48.454;-2.058;2022-12-01T14:45:14;14.15;;;6.25;;
76612;SDS011;65507;48.454;-2.058;2022-12-01T14:47:45;16.52;;;6.03;;
76612;SDS011;65507;48.454;-2.058;2022-12-01T14:50:20;16.50;;;5.80;;
76612;SDS011;65507;48.454;-2.058;2022-12-01T14:56:01;14.82;;;5.80;;
76612;SDS011;65507;48.454;-2.058;2022-12-01T14:58:34;15.65;;;6.10;;
76612;SDS011;65507;48.454;-2.058;2022-12-01T15:01:01;15.02;;;6.45;;
76612;SDS011;65507;48.454;-2.058;2022-12-01T15:03:32;14.30;;;6.45;;
76612;SDS011;65507;48.454;-2.058;2022-12-01T15:06:04;14.32;;;6.05;;
76612;SDS011;65507;48.454;-2.058;2022-12-01T15:08:31;12.20;;;5.93;;
76612;SDS011;65507;48.454;-2.058;2022-12-01T15:10:59;13.35;;;5.60;;
76612;SDS011;65507;48.454;-2.058;2022-12-01T15:18:27;12.63;;;5.80;;
76612;SDS011;65507;48.454;-2.058;2022-12-01T15:23:28;12.43;;;5.47;;
76612;SDS011;65507;48.454;-2.058;2022-12-01T15:25:54;10.95;;;6.05;;
76612;SDS011;65507;48.454;-2.058;2022-12-01T15:28:21;12.18;;;6.00;;
76612;SDS011;65507;48.454;-2.058;2022-12-01T15:30:56;12.38;;;5.78;;
76612;SDS011;65507;48.454;-2.058;2022-12-01T15:33:25;14.27;;;5.85;;
76612;SDS011;65507;48.454;-2.058;2022-12-01T15:35:57;11.32;;;5.40;;
76612;SDS011;65507;48.454;-2.058;2022-12-01T15:40:53;14.25;;;6.28;;
76612;SDS011;65507;48.454;-2.058;2022-12-01T15:43:28;16.48;;;6.55;;
76612;SDS011;65507;48.454;-2.058;2022-12-01T15:46:00;14.95;;;6.57;;
76612;SDS011;65507;48.454;-2.058;2022-12-01T15:48:34;14.77;;;6.60;;
76612;SDS011;65507;48.454;-2.058;2022-12-01T15:53:54;12.55;;;6.38;;
76612;SDS011;65507;48.454;-2.058;2022-12-01T15:56:27;16.23;;;7.15;;
76612;SDS011;65507;48.454;-2.058;2022-12-01T16:01:36;17.05;;;7.25;;
76612;SDS011;65507;48.454;-2.058;2022-12-01T16:06:54;15.98;;;6.63;;
76612;SDS011;65507;48.454;-2.058;2022-12-01T16:12:05;15.50;;;6.43;;
76612;SDS011;65507;48.454;-2.058;2022-12-01T16:14:50;20.55;;;6.70;;
76612;SDS011;65507;48.454;-2.058;2022-12-01T16:17:19;13.18;;;5.65;;
76612;SDS011;65507;48.454;-2.058;2022-12-01T16:19:46;18.23;;;7.10;;
76612;SDS011;65507;48.454;-2.058;2022-12-01T16:22:16;17.17;;;7.47;;
76612;SDS011;65507;48.454;-2.058;2022-12-01T16:24:49;14.63;;;6.32;;
76612;SDS011;65507;48.454;-2.058;2022-12-01T16:32:29;14.27;;;7.13;;
76612;SDS011;65507;48.454;-2.058;2022-12-01T16:35:04;19.25;;;7.10;;
76612;SDS011;65507;48.454;-2.058;2022-12-01T16:39:57;14.18;;;7.72;;
76612;SDS011;65507;48.454;-2.058;2022-12-01T16:42:23;18.60;;;8.90;;
76612;SDS011;65507;48.454;-2.058;2022-12-01T16:44:49;18.70;;;8.23;;
76612;SDS011;65507;48.454;-2.058;2022-12-01T16:47:19;18.23;;;8.83;;
76612;SDS011;65507;48.454;-2.058;2022-12-01T16:49:49;25.02;;;9.40;;
76612;SDS011;65507;48.454;-2.058;2022-12-01T16:52:16;20.73;;;9.70;;
76612;SDS011;65507;48.454;-2.058;2022-12-01T16:54:42;29.25;;;11.70;;
76612;SDS011;65507;48.454;-2.058;2022-12-01T16:57:08;27.33;;;12.27;;
76612;SDS011;65507;48.454;-2.058;2022-12-01T16:59:34;23.67;;;9.65;;
76612;SDS011;65507;48.454;-2.058;2022-12-01T17:02:00;21.40;;;9.07;;
76612;SDS011;65507;48.454;-2.058;2022-12-01T17:04:25;21.40;;;8.48;;
76612;SDS011;65507;48.454;-2.058;2022-12-01T17:06:51;17.40;;;7.85;;
76612;SDS011;65507;48.454;-2.058;2022-12-01T17:09:17;21.33;;;8.43;;
76612;SDS011;65507;48.454;-2.058;2022-12-01T17:11:43;18.55;;;8.25;;
76612;SDS011;65507;48.454;-2.058;2022-12-01T17:14:09;16.60;;;7.97;;
76612;SDS011;65507;48.454;-2.058;2022-12-01T17:16:35;16.40;;;7.88;;
76612;SDS011;65507;48.454;-2.058;2022-12-01T17:19:02;16.30;;;7.55;;
76612;SDS011;65507;48.454;-2.058;2022-12-01T17:21:27;17.37;;;8.10;;
76612;SDS011;65507;48.454;-2.058;2022-12-01T17:23:53;16.30;;;8.15;;
76612;SDS011;65507;48.454;-2.058;2022-12-01T17:26:20;18.55;;;8.65;;
76612;SDS011;65507;48.454;-2.058;2022-12-01T17:28:46;20.08;;;9.27;;
76612;SDS011;65507;48.454;-2.058;2022-12-01T17:31:12;22.40;;;10.10;;
76612;SDS011;65507;48.454;-2.058;2022-12-01T17:33:38;19.75;;;8.55;;
76612;SDS011;65507;48.454;-2.058;2022-12-01T17:36:11;20.77;;;9.45;;
76612;SDS011;65507;48.454;-2.058;2022-12-01T17:38:38;23.15;;;9.38;;
76612;SDS011;65507;48.454;-2.058;2022-12-01T17:41:06;25.42;;;9.00;;
76612;SDS011;65507;48.454;-2.058;2022-12-01T17:43:34;22.95;;;9.02;;
76612;SDS011;65507;48.454;-2.058;2022-12-01T17:46:01;19.60;;;8.63;;
76612;SDS011;65507;48.454;-2.058;2022-12-01T17:48:29;19.08;;;8.52;;